createdAt,value
2019-01-15T00:00:22.054Z,-3.07
2019-01-15T00:01:21.921Z,-2.94
2019-01-15T00:02:21.783Z,-3.10
2019-01-15T00:03:21.647Z,-3.02
2019-01-15T00:04:21.511Z,-3.00
2019-01-15T00:05:21.376Z,-2.94
2019-01-15T00:06:21.240Z,-3.02
2019-01-15T00:07:21.107Z,-3.02
2019-01-15T00:08:20.969Z,-3.00
2019-01-15T00:09:20.833Z,-2.94
2019-01-15T00:10:20.698Z,-2.89
2019-01-15T00:11:20.563Z,-2.90
2019-01-15T00:12:20.425Z,-2.94
2019-01-15T00:13:20.291Z,-2.92
2019-01-15T00:14:20.154Z,-2.93
2019-01-15T00:15:20.019Z,-2.96
2019-01-15T00:16:19.882Z,-2.90
2019-01-15T00:17:19.746Z,-2.86
2019-01-15T00:18:19.612Z,-2.81
2019-01-15T00:19:19.475Z,-2.81
2019-01-15T00:20:19.340Z,-2.87
2019-01-15T00:21:19.206Z,-2.87
2019-01-15T00:22:19.070Z,-2.85
2019-01-15T00:23:18.936Z,-2.94
2019-01-15T00:24:18.798Z,-3.02
2019-01-15T00:25:18.662Z,-3.02
2019-01-15T00:26:18.526Z,-2.97
2019-01-15T00:27:18.392Z,-2.94
2019-01-15T00:28:18.255Z,-2.96
2019-01-15T00:29:18.121Z,-2.99
2019-01-15T00:30:17.987Z,-2.97
2019-01-15T00:31:17.850Z,-2.99
2019-01-15T00:32:17.713Z,-2.99
2019-01-15T00:33:17.578Z,-3.11
2019-01-15T00:34:17.444Z,-3.11
2019-01-15T00:35:17.310Z,-3.08
2019-01-15T00:36:17.170Z,-3.17
2019-01-15T00:37:17.034Z,-3.31
2019-01-15T00:38:16.898Z,-3.14
2019-01-15T00:39:16.764Z,-3.31
2019-01-15T00:40:16.627Z,-3.28
2019-01-15T00:41:16.497Z,-3.31
2019-01-15T00:42:16.357Z,-3.32
2019-01-15T00:43:16.224Z,-3.33
2019-01-15T00:44:16.083Z,-3.23
2019-01-15T00:45:15.951Z,-3.22
2019-01-15T00:46:15.813Z,-3.29
2019-01-15T00:47:15.678Z,-3.31
2019-01-15T00:48:15.539Z,-3.32
2019-01-15T00:49:15.406Z,-3.29
2019-01-15T00:50:15.270Z,-3.43
2019-01-15T00:51:15.132Z,-3.39
2019-01-15T00:52:15.001Z,-3.39
2019-01-15T00:53:14.862Z,-3.44
2019-01-15T00:54:14.731Z,-3.46
2019-01-15T00:55:14.589Z,-3.36
2019-01-15T00:56:14.452Z,-3.46
2019-01-15T00:57:14.316Z,-3.49
2019-01-15T00:58:14.184Z,-3.47
2019-01-15T00:59:14.048Z,-3.54
2019-01-15T01:00:14.573Z,-3.49
2019-01-15T01:01:13.774Z,-3.49
2019-01-15T01:02:13.637Z,-3.43
2019-01-15T01:03:13.501Z,-3.51
2019-01-15T01:04:13.363Z,-3.54
2019-01-15T01:05:13.229Z,-3.47
2019-01-15T01:06:13.093Z,-3.54
2019-01-15T01:07:12.958Z,-3.57
2019-01-15T01:08:12.821Z,-3.56
2019-01-15T01:09:12.684Z,-3.56
2019-01-15T01:10:12.549Z,-3.60
2019-01-15T01:11:12.413Z,-3.65
2019-01-15T01:12:12.275Z,-3.56
2019-01-15T01:13:12.138Z,-3.57
2019-01-15T01:14:12.002Z,-3.50
2019-01-15T01:15:11.866Z,-3.53
2019-01-15T01:16:11.731Z,-3.57
2019-01-15T01:17:11.594Z,-3.56
2019-01-15T01:18:11.457Z,-3.61
2019-01-15T01:19:11.323Z,-3.57
2019-01-15T01:20:11.186Z,-3.56
2019-01-15T01:21:11.050Z,-3.61
2019-01-15T01:22:10.915Z,-3.56
2019-01-15T01:23:10.777Z,-3.57
2019-01-15T01:24:10.642Z,-3.49
2019-01-15T01:25:10.508Z,-3.53
2019-01-15T01:26:10.369Z,-3.49
2019-01-15T01:27:10.234Z,-3.51
2019-01-15T01:28:10.095Z,-3.47
2019-01-15T01:29:10.003Z,-3.53
2019-01-15T01:30:09.824Z,-3.47
2019-01-15T01:31:09.687Z,-3.54
2019-01-15T01:32:09.552Z,-3.54
2019-01-15T01:33:09.415Z,-3.56
2019-01-15T01:34:09.278Z,-3.57
2019-01-15T01:35:09.143Z,-3.54
2019-01-15T01:36:09.006Z,-3.54
2019-01-15T01:37:08.870Z,-3.53
2019-01-15T01:38:08.732Z,-3.57
2019-01-15T01:39:08.596Z,-3.56
2019-01-15T01:40:08.463Z,-3.51
2019-01-15T01:41:08.325Z,-3.53
2019-01-15T01:42:08.187Z,-3.54
2019-01-15T01:43:08.050Z,-3.50
2019-01-15T01:44:07.914Z,-3.53
2019-01-15T01:45:07.779Z,-3.38
2019-01-15T01:46:07.641Z,-3.39
2019-01-15T01:47:07.509Z,-3.41
2019-01-15T01:48:07.368Z,-3.38
2019-01-15T01:49:07.232Z,-3.43
2019-01-15T01:50:07.097Z,-3.41
2019-01-15T01:51:06.961Z,-3.47
2019-01-15T01:52:06.823Z,-3.44
2019-01-15T01:53:06.685Z,-3.53
2019-01-15T01:54:06.551Z,-3.39
2019-01-15T01:55:06.413Z,-3.39
2019-01-15T01:56:06.277Z,-3.51
2019-01-15T01:57:06.141Z,-3.49
2019-01-15T01:58:06.005Z,-3.49
2019-01-15T01:59:05.867Z,-3.47
2019-01-15T02:00:05.732Z,-3.46
2019-01-15T02:01:05.595Z,-3.54
2019-01-15T02:02:05.461Z,-3.60
2019-01-15T02:03:05.326Z,-3.54
2019-01-15T02:04:05.186Z,-3.49
2019-01-15T02:05:05.051Z,-3.53
2019-01-15T02:06:04.916Z,-3.47
2019-01-15T02:07:04.779Z,-3.49
2019-01-15T02:08:04.644Z,-3.43
2019-01-15T02:09:04.505Z,-3.50
2019-01-15T02:10:04.372Z,-3.39
2019-01-15T02:11:04.235Z,-3.51
2019-01-15T02:12:04.096Z,-3.44
2019-01-15T02:13:03.961Z,-3.41
2019-01-15T02:14:03.828Z,-3.39
2019-01-15T02:15:03.690Z,-3.44
2019-01-15T02:16:03.553Z,-3.44
2019-01-15T02:17:03.420Z,-3.49
2019-01-15T02:18:03.304Z,-3.50
2019-01-15T02:19:03.146Z,-3.54
2019-01-15T02:20:03.011Z,-3.43
2019-01-15T02:21:02.877Z,-3.49
2019-01-15T02:22:02.739Z,-3.56
2019-01-15T02:23:02.602Z,-3.51
2019-01-15T02:24:02.477Z,-3.50
2019-01-15T02:25:02.331Z,-3.56
2019-01-15T02:26:02.198Z,-3.56
2019-01-15T02:27:02.059Z,-3.54
2019-01-15T02:28:01.924Z,-3.56
2019-01-15T02:29:01.788Z,-3.57
2019-01-15T02:30:01.652Z,-3.53
2019-01-15T02:31:01.539Z,-3.57
2019-01-15T02:32:01.383Z,-3.60
2019-01-15T02:33:01.248Z,-3.60
2019-01-15T02:34:01.110Z,-3.54
2019-01-15T02:35:00.974Z,-3.53
2019-01-15T02:36:00.834Z,-3.64
2019-01-15T02:37:00.698Z,-3.67
2019-01-15T02:38:00.565Z,-3.68
2019-01-15T02:39:00.430Z,-3.72
2019-01-15T02:40:00.292Z,-3.71
2019-01-15T02:41:00.155Z,-3.57
2019-01-15T02:42:00.019Z,-3.61
2019-01-15T02:42:59.885Z,-3.67
2019-01-15T02:43:59.745Z,-3.70
2019-01-15T02:44:59.612Z,-3.62
2019-01-15T02:45:59.477Z,-3.71
2019-01-15T02:46:59.340Z,-3.76
2019-01-15T02:47:59.205Z,-3.86
2019-01-15T02:48:59.068Z,-3.62
2019-01-15T02:49:58.933Z,-3.64
2019-01-15T02:50:58.796Z,-3.68
2019-01-15T02:51:58.658Z,-3.78
2019-01-15T02:52:58.524Z,-3.68
2019-01-15T02:53:58.912Z,-3.84
2019-01-15T02:54:58.252Z,-3.84
2019-01-15T02:55:58.116Z,-3.75
2019-01-15T02:56:57.979Z,-3.75
2019-01-15T02:57:57.844Z,-3.83
2019-01-15T02:58:57.712Z,-3.94
2019-01-15T02:59:57.571Z,-3.86
2019-01-15T03:00:57.434Z,-3.81
2019-01-15T03:01:57.300Z,-3.89
2019-01-15T03:02:57.164Z,-3.80
2019-01-15T03:03:57.027Z,-3.72
2019-01-15T03:04:56.893Z,-3.67
2019-01-15T03:05:56.757Z,-3.62
2019-01-15T03:06:56.619Z,-3.86
2019-01-15T03:07:56.492Z,-3.89
2019-01-15T03:08:56.346Z,-3.76
2019-01-15T03:09:56.214Z,-3.80
2019-01-15T03:10:56.076Z,-3.80
2019-01-15T03:11:55.942Z,-3.81
2019-01-15T03:12:56.706Z,-3.80
2019-01-15T03:13:55.665Z,-3.78
2019-01-15T03:14:55.534Z,-3.76
2019-01-15T03:15:55.398Z,-3.81
2019-01-15T03:16:55.260Z,-3.80
2019-01-15T03:17:55.124Z,-3.87
2019-01-15T03:18:54.987Z,-3.87
2019-01-15T03:19:54.852Z,-3.83
2019-01-15T03:20:54.716Z,-3.78
2019-01-15T03:21:54.576Z,-3.89
2019-01-15T03:22:54.443Z,-3.86
2019-01-15T03:23:54.305Z,-3.80
2019-01-15T03:24:54.170Z,-3.83
2019-01-15T03:25:54.034Z,-3.86
2019-01-15T03:26:53.899Z,-3.98
2019-01-15T03:27:53.764Z,-3.93
2019-01-15T03:28:53.627Z,-4.04
2019-01-15T03:29:53.489Z,-3.93
2019-01-15T03:30:53.356Z,-4.04
2019-01-15T03:31:53.220Z,-4.07
2019-01-15T03:32:53.097Z,-4.09
2019-01-15T03:33:52.947Z,-4.23
2019-01-15T03:34:52.810Z,-4.19
2019-01-15T03:35:52.672Z,-4.19
2019-01-15T03:36:52.538Z,-4.20
2019-01-15T03:37:52.404Z,-4.28
2019-01-15T03:38:52.297Z,-4.26
2019-01-15T03:39:52.128Z,-4.29
2019-01-15T03:40:51.993Z,-4.38
2019-01-15T03:41:51.856Z,-4.41
2019-01-15T03:42:51.721Z,-4.47
2019-01-15T03:43:51.584Z,-4.44
2019-01-15T03:44:51.447Z,-4.48
2019-01-15T03:45:51.310Z,-4.44
2019-01-15T03:46:51.174Z,-4.46
2019-01-15T03:47:51.037Z,-4.48
2019-01-15T03:48:50.903Z,-4.54
2019-01-15T03:49:50.766Z,-4.62
2019-01-15T03:50:50.631Z,-4.62
2019-01-15T03:51:50.492Z,-4.61
2019-01-15T03:52:50.358Z,-4.58
2019-01-15T03:53:50.221Z,-4.76
2019-01-15T03:54:50.081Z,-4.75
2019-01-15T03:55:49.945Z,-4.77
2019-01-15T03:56:49.812Z,-4.66
2019-01-15T03:57:49.672Z,-4.76
2019-01-15T03:58:49.552Z,-4.80
2019-01-15T03:59:49.398Z,-4.82
2019-01-15T04:00:49.261Z,-4.82
2019-01-15T04:01:49.125Z,-4.86
2019-01-15T04:02:48.989Z,-4.82
2019-01-15T04:03:48.857Z,-4.83
2019-01-15T04:04:48.717Z,-4.95
2019-01-15T04:05:48.576Z,-4.93
2019-01-15T04:06:48.441Z,-4.89
2019-01-15T04:07:48.305Z,-4.95
2019-01-15T04:08:48.169Z,-4.95
2019-01-15T04:09:48.029Z,-4.85
2019-01-15T04:10:47.892Z,-4.82
2019-01-15T04:11:47.757Z,-4.69
2019-01-15T04:12:47.623Z,-4.68
2019-01-15T04:13:47.482Z,-4.64
2019-01-15T04:14:47.343Z,-4.61
2019-01-15T04:15:47.207Z,-4.58
2019-01-15T04:16:47.070Z,-4.50
2019-01-15T04:17:46.934Z,-4.47
2019-01-15T04:18:46.800Z,-4.55
2019-01-15T04:19:46.662Z,-4.58
2019-01-15T04:20:46.523Z,-4.62
2019-01-15T04:21:46.387Z,-4.62
2019-01-15T04:22:46.259Z,-4.57
2019-01-15T04:23:46.112Z,-4.62
2019-01-15T04:24:45.975Z,-4.73
2019-01-15T04:25:45.839Z,-4.65
2019-01-15T04:26:45.702Z,-4.66
2019-01-15T04:27:45.564Z,-4.68
2019-01-15T04:28:45.428Z,-4.75
2019-01-15T04:29:45.292Z,-4.69
2019-01-15T04:30:45.153Z,-4.79
2019-01-15T04:31:45.016Z,-4.73
2019-01-15T04:32:44.880Z,-4.62
2019-01-15T04:33:44.742Z,-4.59
2019-01-15T04:34:44.608Z,-4.64
2019-01-15T04:35:44.470Z,-4.58
2019-01-15T04:36:44.332Z,-4.59
2019-01-15T04:37:44.195Z,-4.66
2019-01-15T04:38:44.060Z,-4.61
2019-01-15T04:39:43.920Z,-4.62
2019-01-15T04:40:43.785Z,-4.69
2019-01-15T04:41:43.656Z,-4.64
2019-01-15T04:42:43.515Z,-4.73
2019-01-15T04:43:43.380Z,-4.76
2019-01-15T04:44:43.237Z,-4.79
2019-01-15T04:45:43.102Z,-4.79
2019-01-15T04:46:42.965Z,-4.91
2019-01-15T04:47:42.828Z,-4.93
2019-01-15T04:48:42.689Z,-4.94
2019-01-15T04:49:42.579Z,-4.89
2019-01-15T04:50:42.420Z,-4.95
2019-01-15T04:51:42.278Z,-4.97
2019-01-15T04:52:42.142Z,-4.95
2019-01-15T04:53:42.015Z,-4.97
2019-01-15T04:54:41.868Z,-4.89
2019-01-15T04:55:41.729Z,-4.93
2019-01-15T04:56:41.592Z,-4.86
2019-01-15T04:57:41.456Z,-4.86
2019-01-15T04:58:41.336Z,-4.93
2019-01-15T04:59:41.182Z,-4.80
2019-01-15T05:00:41.048Z,-4.83
2019-01-15T05:01:40.943Z,-4.86
2019-01-15T05:02:40.771Z,-4.73
2019-01-15T05:03:40.635Z,-4.83
2019-01-15T05:04:40.499Z,-4.87
2019-01-15T05:05:40.360Z,-4.87
2019-01-15T05:06:40.226Z,-4.86
2019-01-15T05:07:40.084Z,-4.76
2019-01-15T05:08:39.951Z,-4.76
2019-01-15T05:09:39.862Z,-4.86
2019-01-15T05:10:39.675Z,-4.83
2019-01-15T05:11:39.538Z,-4.89
2019-01-15T05:12:39.438Z,-4.95
2019-01-15T05:13:39.262Z,-4.98
2019-01-15T05:14:39.127Z,-4.93
2019-01-15T05:15:38.989Z,-4.86
2019-01-15T05:16:38.879Z,-4.93
2019-01-15T05:17:38.714Z,-4.95
2019-01-15T05:18:38.583Z,-4.89
2019-01-15T05:19:38.442Z,-4.85
2019-01-15T05:20:38.306Z,-4.86
2019-01-15T05:21:38.166Z,-4.80
2019-01-15T05:22:38.030Z,-4.87
2019-01-15T05:23:37.891Z,-4.80
2019-01-15T05:24:37.772Z,-4.83
2019-01-15T05:25:37.618Z,-4.77
2019-01-15T05:26:37.481Z,-4.79
2019-01-15T05:27:37.346Z,-4.71
2019-01-15T05:28:37.208Z,-4.79
2019-01-15T05:29:37.092Z,-4.76
2019-01-15T05:30:36.942Z,-4.69
2019-01-15T05:31:36.797Z,-4.64
2019-01-15T05:32:36.696Z,-4.77
2019-01-15T05:33:36.523Z,-4.73
2019-01-15T05:34:36.390Z,-4.71
2019-01-15T05:35:36.247Z,-4.75
2019-01-15T05:36:36.134Z,-4.79
2019-01-15T05:37:35.975Z,-4.73
2019-01-15T05:38:35.837Z,-4.79
2019-01-15T05:39:35.700Z,-4.76
2019-01-15T05:40:35.562Z,-4.79
2019-01-15T05:41:35.424Z,-4.69
2019-01-15T05:42:35.287Z,-4.75
2019-01-15T05:43:35.716Z,-4.69
2019-01-15T05:44:35.014Z,-4.75
2019-01-15T05:45:34.892Z,-4.75
2019-01-15T05:46:34.740Z,-4.76
2019-01-15T05:47:34.600Z,-4.80
2019-01-15T05:48:34.466Z,-4.75
2019-01-15T05:49:34.328Z,-4.69
2019-01-15T05:50:34.191Z,-4.69
2019-01-15T05:51:34.060Z,-4.69
2019-01-15T05:52:33.917Z,-4.64
2019-01-15T05:53:33.780Z,-4.57
2019-01-15T05:54:33.644Z,-4.64
2019-01-15T05:55:33.510Z,-4.58
2019-01-15T05:56:33.370Z,-4.58
2019-01-15T05:57:33.231Z,-4.54
2019-01-15T05:58:33.099Z,-4.50
2019-01-15T05:59:32.959Z,-4.48
2019-01-15T06:00:32.820Z,-4.54
2019-01-15T06:01:32.684Z,-4.43
2019-01-15T06:02:32.546Z,-4.62
2019-01-15T06:03:32.409Z,-4.62
2019-01-15T06:04:32.275Z,-4.65
2019-01-15T06:05:32.138Z,-4.61
2019-01-15T06:06:32.000Z,-4.50
2019-01-15T06:07:33.810Z,-4.43
2019-01-15T06:08:33.338Z,-4.48
2019-01-15T06:09:31.590Z,-4.46
2019-01-15T06:10:31.454Z,-4.51
2019-01-15T06:11:31.317Z,-4.48
2019-01-15T06:12:31.180Z,-4.47
2019-01-15T06:13:31.041Z,-4.48
2019-01-15T06:14:30.905Z,-4.43
2019-01-15T06:15:30.768Z,-4.48
2019-01-15T06:16:30.675Z,-4.54
2019-01-15T06:17:30.496Z,-4.57
2019-01-15T06:18:30.364Z,-4.61
2019-01-15T06:19:30.223Z,-4.48
2019-01-15T06:20:30.088Z,-4.47
2019-01-15T06:21:29.948Z,-4.48
2019-01-15T06:22:29.812Z,-4.47
2019-01-15T06:23:29.721Z,-4.46
2019-01-15T06:24:29.540Z,-4.50
2019-01-15T06:25:29.403Z,-4.51
2019-01-15T06:26:29.264Z,-4.48
2019-01-15T06:27:29.126Z,-4.47
2019-01-15T06:28:28.989Z,-4.50
2019-01-15T06:29:28.854Z,-4.47
2019-01-15T06:30:28.713Z,-4.48
2019-01-15T06:31:28.579Z,-4.47
2019-01-15T06:32:28.442Z,-4.47
2019-01-15T06:33:28.346Z,-4.54
2019-01-15T06:34:28.171Z,-4.48
2019-01-15T06:35:28.031Z,-4.44
2019-01-15T06:36:27.894Z,-4.46
2019-01-15T06:37:27.756Z,-4.41
2019-01-15T06:38:27.618Z,-4.41
2019-01-15T06:39:27.483Z,-4.37
2019-01-15T06:40:27.346Z,-4.36
2019-01-15T06:41:27.209Z,-4.30
2019-01-15T06:42:27.071Z,-4.33
2019-01-15T06:43:26.958Z,-4.37
2019-01-15T06:44:26.805Z,-4.32
2019-01-15T06:45:26.662Z,-4.36
2019-01-15T06:46:26.529Z,-4.28
2019-01-15T06:47:26.390Z,-4.22
2019-01-15T06:48:26.251Z,-4.22
2019-01-15T06:49:26.121Z,-4.18
2019-01-15T06:50:25.978Z,-4.23
2019-01-15T06:51:25.838Z,-4.28
2019-01-15T06:52:25.703Z,-4.20
2019-01-15T06:53:25.565Z,-4.20
2019-01-15T06:54:25.445Z,-4.26
2019-01-15T06:55:25.297Z,-4.23
2019-01-15T06:56:25.181Z,-4.26
2019-01-15T06:57:25.021Z,-4.26
2019-01-15T06:58:24.883Z,-4.29
2019-01-15T06:59:24.747Z,-4.36
2019-01-15T07:00:24.611Z,-4.38
2019-01-15T07:01:24.474Z,-4.33
2019-01-15T07:02:24.337Z,-4.36
2019-01-15T07:03:24.201Z,-4.37
2019-01-15T07:04:24.063Z,-4.38
2019-01-15T07:05:23.927Z,-4.26
2019-01-15T07:06:23.791Z,-4.26
2019-01-15T07:07:23.653Z,-4.26
2019-01-15T07:08:23.516Z,-4.36
2019-01-15T07:09:23.381Z,-4.32
2019-01-15T07:10:23.245Z,-4.29
2019-01-15T07:11:23.106Z,-4.30
2019-01-15T07:12:22.970Z,-4.28
2019-01-15T07:13:22.834Z,-4.25
2019-01-15T07:14:22.696Z,-4.23
2019-01-15T07:15:22.560Z,-4.14
2019-01-15T07:16:22.422Z,-4.09
2019-01-15T07:17:22.288Z,-4.19
2019-01-15T07:18:22.150Z,-4.26
2019-01-15T07:19:22.014Z,-4.25
2019-01-15T07:20:21.876Z,-4.26
2019-01-15T07:21:21.739Z,-4.28
2019-01-15T07:22:21.602Z,-4.22
2019-01-15T07:23:21.466Z,-4.14
2019-01-15T07:24:21.328Z,-4.18
2019-01-15T07:25:21.194Z,-4.08
2019-01-15T07:26:21.057Z,-4.07
2019-01-15T07:27:20.920Z,-4.05
2019-01-15T07:28:20.783Z,-4.05
2019-01-15T07:29:20.646Z,-4.08
2019-01-15T07:30:20.509Z,-4.08
2019-01-15T07:31:20.373Z,-3.93
2019-01-15T07:32:20.237Z,-3.90
2019-01-15T07:33:20.100Z,-3.76
2019-01-15T07:34:19.964Z,-3.91
2019-01-15T07:35:19.826Z,-3.81
2019-01-15T07:36:19.690Z,-3.86
2019-01-15T07:37:19.555Z,-3.84
2019-01-15T07:38:19.417Z,-3.83
2019-01-15T07:39:19.278Z,-3.96
2019-01-15T07:40:19.144Z,-3.84
2019-01-15T07:41:19.008Z,-3.84
2019-01-15T07:42:18.870Z,-3.90
2019-01-15T07:43:18.737Z,-3.80
2019-01-15T07:44:18.596Z,-3.80
2019-01-15T07:45:18.461Z,-3.76
2019-01-15T07:46:18.324Z,-3.75
2019-01-15T07:47:18.188Z,-3.75
2019-01-15T07:48:18.051Z,-3.67
2019-01-15T07:49:17.916Z,-3.60
2019-01-15T07:50:17.779Z,-3.53
2019-01-15T07:51:17.641Z,-3.51
2019-01-15T07:52:17.507Z,-3.62
2019-01-15T07:53:17.380Z,-3.57
2019-01-15T07:54:17.235Z,-3.53
2019-01-15T07:55:17.118Z,-3.46
2019-01-15T07:56:16.966Z,-3.47
2019-01-15T07:57:16.826Z,-3.43
2019-01-15T07:58:16.699Z,-3.44
2019-01-15T07:59:16.554Z,-3.26
2019-01-15T08:00:16.419Z,-3.31
2019-01-15T08:01:16.284Z,-3.32
2019-01-15T08:02:16.146Z,-3.39
2019-01-15T08:03:16.012Z,-3.44
2019-01-15T08:04:15.876Z,-3.46
2019-01-15T08:05:15.739Z,-3.47
2019-01-15T08:06:15.603Z,-3.43
2019-01-15T08:07:15.467Z,-3.39
2019-01-15T08:08:15.331Z,-3.43
2019-01-15T08:09:15.194Z,-3.39
2019-01-15T08:10:15.060Z,-3.46
2019-01-15T08:11:14.927Z,-3.43
2019-01-15T08:12:14.786Z,-3.41
2019-01-15T08:13:14.650Z,-3.41
2019-01-15T08:14:14.517Z,-3.33
2019-01-15T08:15:14.378Z,-3.53
2019-01-15T08:16:14.243Z,-3.46
2019-01-15T08:17:14.110Z,-3.47
2019-01-15T08:18:13.988Z,-3.56
2019-01-15T08:19:13.837Z,-3.51
2019-01-15T08:20:13.700Z,-3.49
2019-01-15T08:21:13.563Z,-3.51
2019-01-15T08:22:13.430Z,-3.46
2019-01-15T08:23:13.290Z,-3.29
2019-01-15T08:24:13.156Z,-3.29
2019-01-15T08:25:13.019Z,-3.22
2019-01-15T08:26:12.886Z,-3.15
2019-01-15T08:27:12.746Z,-3.02
2019-01-15T08:28:12.614Z,-3.04
2019-01-15T08:29:12.473Z,-2.92
2019-01-15T08:30:12.336Z,-2.99
2019-01-15T08:31:12.200Z,-2.87
2019-01-15T08:32:12.063Z,-2.76
2019-01-15T08:33:11.929Z,-2.72
2019-01-15T08:34:11.792Z,-2.69
2019-01-15T08:35:11.657Z,-2.66
2019-01-15T08:36:11.520Z,-2.75
2019-01-15T08:37:11.384Z,-2.86
2019-01-15T08:38:11.248Z,-2.82
2019-01-15T08:39:11.113Z,-2.99
2019-01-15T08:40:10.977Z,-3.05
2019-01-15T08:41:10.841Z,-3.02
2019-01-15T08:42:10.705Z,-2.96
2019-01-15T08:43:10.567Z,-2.94
2019-01-15T08:44:10.436Z,-2.87
2019-01-15T08:45:10.298Z,-2.89
2019-01-15T08:46:10.163Z,-2.92
2019-01-15T08:47:10.024Z,-2.96
2019-01-15T08:48:09.892Z,-2.90
2019-01-15T08:49:09.755Z,-2.78
2019-01-15T08:50:09.621Z,-2.76
2019-01-15T08:51:09.484Z,-2.74
2019-01-15T08:52:09.348Z,-2.63
2019-01-15T08:53:09.215Z,-2.58
2019-01-15T08:54:09.079Z,-2.58
2019-01-15T08:55:08.941Z,-2.56
2019-01-15T08:56:08.810Z,-2.60
2019-01-15T08:57:08.674Z,-2.56
2019-01-15T08:58:08.535Z,-2.60
2019-01-15T08:59:08.401Z,-2.54
2019-01-15T09:00:08.265Z,-2.60
2019-01-15T09:01:08.129Z,-2.54
2019-01-15T09:02:07.993Z,-2.51
2019-01-15T09:03:07.857Z,-2.43
2019-01-15T09:04:07.720Z,-2.26
2019-01-15T09:05:07.587Z,-2.28
2019-01-15T09:06:07.455Z,-2.28
2019-01-15T09:07:07.318Z,-2.23
2019-01-15T09:08:07.183Z,-2.17
2019-01-15T09:09:07.045Z,-2.23
2019-01-15T09:10:06.911Z,-2.32
2019-01-15T09:11:06.774Z,-2.32
2019-01-15T09:12:06.645Z,-2.26
2019-01-15T09:13:06.505Z,-2.26
2019-01-15T09:14:06.368Z,-2.24
2019-01-15T09:15:06.234Z,-2.17
2019-01-15T09:16:06.098Z,-2.26
2019-01-15T09:17:10.984Z,-2.20
2019-01-15T09:18:05.834Z,-2.26
2019-01-15T09:19:05.691Z,-2.17
2019-01-15T09:20:05.563Z,-2.24
2019-01-15T09:21:05.423Z,-2.33
2019-01-15T09:22:05.288Z,-2.54
2019-01-15T09:23:05.153Z,-2.78
2019-01-15T09:24:05.023Z,-2.99
2019-01-15T09:25:04.881Z,-3.11
2019-01-15T09:26:04.746Z,-3.29
2019-01-15T09:27:04.610Z,-3.41
2019-01-15T09:28:04.476Z,-3.56
2019-01-15T09:29:04.342Z,-3.65
2019-01-15T09:30:04.205Z,-3.84
2019-01-15T09:31:04.068Z,-3.87
2019-01-15T09:32:03.932Z,-3.89
2019-01-15T09:33:03.799Z,-3.86
2019-01-15T09:34:03.663Z,-3.81
2019-01-15T09:35:03.526Z,-3.75
2019-01-15T09:36:03.390Z,-3.87
2019-01-15T09:37:04.770Z,-3.93
2019-01-15T09:38:03.121Z,-3.78
2019-01-15T09:39:02.985Z,-3.86
2019-01-15T09:40:02.849Z,-3.71
2019-01-15T09:41:02.713Z,-3.57
2019-01-15T09:42:02.577Z,-3.39
2019-01-15T09:43:02.443Z,-3.11
2019-01-15T09:44:02.307Z,-2.97
2019-01-15T09:45:02.180Z,-2.69
2019-01-15T09:46:02.037Z,-2.54
2019-01-15T09:47:01.899Z,-2.53
2019-01-15T09:48:01.763Z,-2.56
2019-01-15T09:49:01.628Z,-2.48
2019-01-15T09:50:01.493Z,-2.43
2019-01-15T09:51:01.357Z,-2.50
2019-01-15T09:52:01.219Z,-2.50
2019-01-15T09:53:01.083Z,-2.53
2019-01-15T09:54:00.951Z,-2.69
2019-01-15T09:55:00.814Z,-2.56
2019-01-15T09:56:00.678Z,-2.58
2019-01-15T09:57:00.547Z,-2.66
2019-01-15T09:58:00.407Z,-2.63
2019-01-15T09:59:00.269Z,-2.51
2019-01-15T10:00:00.196Z,-2.53
2019-01-15T10:01:00.003Z,-2.53
2019-01-15T10:01:59.863Z,-2.42
2019-01-15T10:02:59.729Z,-2.29
2019-01-15T10:03:59.592Z,-2.10
2019-01-15T10:04:59.458Z,-1.75
2019-01-15T10:05:59.322Z,-1.46
2019-01-15T10:06:59.192Z,-1.18
2019-01-15T10:07:59.050Z,-0.87
2019-01-15T10:08:58.915Z,-0.73
2019-01-15T10:09:58.785Z,-0.52
2019-01-15T10:10:58.645Z,-0.78
2019-01-15T10:11:58.512Z,-0.95
2019-01-15T10:12:58.375Z,-0.86
2019-01-15T10:13:58.243Z,-0.57
2019-01-15T10:14:58.118Z,-0.39
2019-01-15T10:15:57.971Z,-0.29
2019-01-15T10:16:57.836Z,0.10
2019-01-15T10:17:57.702Z,-0.08
2019-01-15T10:18:57.568Z,-0.16
2019-01-15T10:19:57.433Z,-0.36
2019-01-15T10:20:57.302Z,-0.13
2019-01-15T10:21:57.166Z,-0.68
2019-01-15T10:22:57.030Z,-0.50
2019-01-15T10:23:56.899Z,-0.11
2019-01-15T10:24:56.765Z,0.18
2019-01-15T10:25:56.632Z,0.24
2019-01-15T10:26:56.496Z,0.07
2019-01-15T10:27:56.365Z,0.36
2019-01-15T10:28:56.230Z,0.49
2019-01-15T10:29:59.242Z,0.62
2019-01-15T10:30:55.963Z,1.04
2019-01-15T10:31:55.836Z,0.89
2019-01-15T10:32:55.699Z,0.70
2019-01-15T10:33:55.568Z,0.58
2019-01-15T10:34:55.430Z,0.72
2019-01-15T10:35:55.299Z,0.89
2019-01-15T10:36:55.167Z,1.25
2019-01-15T10:37:55.034Z,1.26
2019-01-15T10:38:54.901Z,1.34
2019-01-15T10:39:54.769Z,1.43
2019-01-15T10:40:54.644Z,1.99
2019-01-15T10:41:54.510Z,2.12
2019-01-15T10:42:54.372Z,2.33
2019-01-15T10:43:54.238Z,2.26
2019-01-15T10:44:54.107Z,2.31
2019-01-15T10:45:53.979Z,2.33
2019-01-15T10:46:53.846Z,2.01
2019-01-15T10:47:53.712Z,1.62
2019-01-15T10:48:53.581Z,1.39
2019-01-15T10:49:53.448Z,1.51
2019-01-15T10:50:53.318Z,1.36
2019-01-15T10:51:53.185Z,1.16
2019-01-15T10:52:53.053Z,1.00
2019-01-15T10:53:52.923Z,0.88
2019-01-15T10:54:52.795Z,1.26
2019-01-15T10:55:52.663Z,1.28
2019-01-15T10:56:52.525Z,1.73
2019-01-15T10:57:52.397Z,1.72
2019-01-15T10:58:52.263Z,1.65
2019-01-15T10:59:52.131Z,1.72
2019-01-15T11:00:51.999Z,1.94
2019-01-15T11:01:51.868Z,2.30
2019-01-15T11:02:51.737Z,2.28
2019-01-15T11:03:51.603Z,2.30
2019-01-15T11:04:51.473Z,1.91
2019-01-15T11:05:51.342Z,1.72
2019-01-15T11:06:51.209Z,1.90
2019-01-15T11:07:51.078Z,1.97
2019-01-15T11:08:50.949Z,2.40
2019-01-15T11:09:50.821Z,2.41
2019-01-15T11:10:50.689Z,2.31
2019-01-15T11:11:50.554Z,2.13
2019-01-15T11:12:50.421Z,1.93
2019-01-15T11:13:50.292Z,1.89
2019-01-15T11:14:55.961Z,1.78
2019-01-15T11:15:50.030Z,1.98
2019-01-15T11:16:49.899Z,1.91
2019-01-15T11:17:49.773Z,1.82
2019-01-15T11:18:49.637Z,1.60
2019-01-15T11:19:49.506Z,1.36
2019-01-15T11:20:49.373Z,0.97
2019-01-15T11:21:49.241Z,0.75
2019-01-15T11:22:49.113Z,0.97
2019-01-15T11:23:48.978Z,0.86
2019-01-15T11:24:48.847Z,0.61
2019-01-15T11:25:48.716Z,0.85
2019-01-15T11:26:48.581Z,0.94
2019-01-15T11:27:48.449Z,0.85
2019-01-15T11:28:48.323Z,0.62
2019-01-15T11:29:48.191Z,0.58
2019-01-15T11:30:48.053Z,0.34
2019-01-15T11:31:47.922Z,0.57
2019-01-15T11:32:47.796Z,0.71
2019-01-15T11:33:47.659Z,0.53
2019-01-15T11:34:47.524Z,0.86
2019-01-15T11:35:47.391Z,1.19
2019-01-15T11:36:47.259Z,1.03
2019-01-15T11:37:47.128Z,1.16
2019-01-15T11:38:47.002Z,1.28
2019-01-15T11:39:46.864Z,1.52
2019-01-15T11:40:46.729Z,1.65
2019-01-15T11:41:46.598Z,1.51
2019-01-15T11:42:46.466Z,1.29
2019-01-15T11:43:46.332Z,0.89
2019-01-15T11:44:46.200Z,0.53
2019-01-15T11:45:46.070Z,0.53
2019-01-15T11:46:45.936Z,0.49
2019-01-15T11:47:45.804Z,0.33
2019-01-15T11:48:45.686Z,0.62
2019-01-15T11:49:45.539Z,0.64
2019-01-15T11:50:45.407Z,0.79
2019-01-15T11:51:45.272Z,1.10
2019-01-15T11:52:45.141Z,1.24
2019-01-15T11:53:45.011Z,0.72
2019-01-15T11:54:44.878Z,0.72
2019-01-15T11:55:44.746Z,0.68
2019-01-15T11:56:44.611Z,0.76
2019-01-15T11:57:44.481Z,0.75
2019-01-15T11:58:44.345Z,0.76
2019-01-15T11:59:44.216Z,0.76
2019-01-15T12:00:44.085Z,0.83
2019-01-15T12:01:43.950Z,0.67
2019-01-15T12:02:43.816Z,0.88
2019-01-15T12:03:43.683Z,0.58
2019-01-15T12:04:43.551Z,0.42
2019-01-15T12:05:43.419Z,0.58
2019-01-15T12:06:43.291Z,0.60
2019-01-15T12:07:43.152Z,0.64
2019-01-15T12:08:43.020Z,0.58
2019-01-15T12:09:42.887Z,0.61
2019-01-15T12:10:42.755Z,0.48
2019-01-15T12:11:42.624Z,0.00
2019-01-15T12:12:42.486Z,0.09
2019-01-15T12:13:42.357Z,0.07
2019-01-15T12:14:42.225Z,0.00
2019-01-15T12:15:42.094Z,0.07
2019-01-15T12:16:41.956Z,0.00
2019-01-15T12:17:41.833Z,-0.08
2019-01-15T12:18:41.688Z,0.12
2019-01-15T12:19:41.555Z,0.34
2019-01-15T12:20:41.422Z,0.52
2019-01-15T12:21:41.290Z,0.71
2019-01-15T12:22:41.158Z,0.90
2019-01-15T12:23:41.024Z,1.08
2019-01-15T12:24:40.892Z,1.04
2019-01-15T12:25:40.758Z,0.57
2019-01-15T12:26:40.633Z,0.97
2019-01-15T12:27:40.495Z,0.79
2019-01-15T12:28:40.362Z,0.83
2019-01-15T12:29:40.230Z,0.75
2019-01-15T12:30:40.097Z,0.43
2019-01-15T12:31:39.964Z,0.42
2019-01-15T12:32:39.836Z,0.52
2019-01-15T12:33:39.701Z,0.61
2019-01-15T12:34:39.567Z,0.83
2019-01-15T12:35:39.451Z,1.08
2019-01-15T12:36:39.300Z,1.08
2019-01-15T12:37:39.170Z,1.03
2019-01-15T12:38:39.034Z,0.85
2019-01-15T12:39:38.904Z,1.01
2019-01-15T12:40:38.771Z,1.12
2019-01-15T12:41:38.638Z,1.14
2019-01-15T12:42:38.507Z,1.18
2019-01-15T12:43:38.373Z,1.44
2019-01-15T12:44:38.259Z,1.19
2019-01-15T12:45:38.110Z,1.28
2019-01-15T12:46:37.977Z,1.01
2019-01-15T12:47:37.847Z,0.79
2019-01-15T12:48:37.713Z,0.58
2019-01-15T12:49:37.579Z,0.53
2019-01-15T12:50:37.447Z,0.49
2019-01-15T12:51:37.315Z,0.31
2019-01-15T12:52:37.183Z,0.24
2019-01-15T12:53:37.049Z,0.18
2019-01-15T12:54:36.916Z,0.42
2019-01-15T12:55:36.783Z,0.48